Time;durP1;ratioP1;P1;durP2;ratioP2;P2;SDS_P1;SDS_P2;PMS_P1;PMS_P2;Temp;Humidity;BMP_temperature;BMP_pressure;BME280_temperature;BME280_humidity;BME280_pressure;Samples;Min_cycle;Max_cycle;Signal;HPM_P1;HPM_P2
2022/09/23 00:01:53;;;;;;;2.80;1.50;;;14.00;91.80;;;;;;5031536;28;20229;-76
2022/09/23 00:04:19;;;;;;;2.63;1.50;;;14.00;92.00;;;;;;5031676;28;20577;-76
2022/09/23 00:06:45;;;;;;;5.47;1.80;;;14.00;92.20;;;;;;5030292;28;20170;-76
2022/09/23 00:09:11;;;;;;;2.80;1.40;;;14.00;92.00;;;;;;5031272;28;20742;-75
2022/09/23 00:11:37;;;;;;;2.73;1.43;;;14.00;93.00;;;;;;5031395;28;20218;-76
2022/09/23 00:14:03;;;;;;;2.53;1.33;;;14.00;92.40;;;;;;5031322;28;20579;-76
2022/09/23 00:16:33;;;;;;;2.28;1.20;;;14.00;92.60;;;;;;5031351;28;20913;-76
2022/09/23 00:19:01;;;;;;;2.17;1.10;;;13.90;92.80;;;;;;5031436;28;20193;-76
2022/09/23 00:21:28;;;;;;;5.53;1.70;;;13.90;92.70;;;;;;5031258;28;20251;-77
2022/09/23 00:23:54;;;;;;;2.05;1.15;;;13.90;93.40;;;;;;5037312;28;20527;-77
2022/09/23 00:26:21;;;;;;;4.00;1.40;;;13.90;93.00;;;;;;5031513;28;20173;-78
2022/09/23 00:28:48;;;;;;;3.67;1.60;;;13.90;93.60;;;;;;5031286;28;20593;-76
2022/09/23 00:31:19;;;;;;;5.43;1.70;;;13.90;93.30;;;;;;5029832;28;20188;-77
2022/09/23 00:33:46;;;;;;;2.63;1.35;;;13.80;93.90;;;;;;5030158;28;20174;-76
2022/09/23 00:36:15;;;;;;;3.50;1.57;;;13.80;93.60;;;;;;5033428;28;20232;-77
2022/09/23 00:38:41;;;;;;;1.90;1.10;;;13.80;95.00;;;;;;5034840;28;21004;-77
2022/09/23 00:41:07;;;;;;;2.25;1.13;;;13.80;93.80;;;;;;5034687;28;20194;-76
2022/09/23 00:44:00;;;;;;;3.10;1.87;;;13.80;93.60;;;;;;5034204;28;20165;-77
2022/09/23 00:46:40;;;;;;;2.50;1.42;;;13.80;95.10;;;;;;5032288;28;20194;-76
2022/09/23 00:49:16;;;;;;;2.05;1.23;;;13.80;93.90;;;;;;5033294;28;20708;-76
2022/09/23 00:51:53;;;;;;;3.80;1.75;;;13.80;94.30;;;;;;5035363;28;20184;-74
2022/09/23 00:54:20;;;;;;;2.58;1.40;;;13.80;94.10;;;;;;5034773;28;20165;-73
2022/09/23 00:56:46;;;;;;;2.00;1.13;;;13.80;93.60;;;;;;5034764;28;20181;-73
2022/09/23 00:59:12;;;;;;;2.30;1.20;;;13.80;93.70;;;;;;5034889;28;20215;-73
2022/09/23 01:01:38;;;;;;;3.55;1.25;;;13.70;93.90;;;;;;5035000;28;20612;-74
2022/09/23 01:04:06;;;;;;;2.05;1.42;;;13.70;94.20;;;;;;5034536;28;20174;-73
2022/09/23 01:06:32;;;;;;;3.13;1.50;;;13.70;94.50;;;;;;5034641;28;20181;-73
2022/09/23 01:08:58;;;;;;;3.93;1.97;;;13.70;94.20;;;;;;5033203;28;20193;-73
2022/09/23 01:11:43;;;;;;;3.47;1.57;;;13.70;94.40;;;;;;5034238;28;20300;-73
2022/09/23 01:14:56;;;;;;;2.30;1.23;;;13.70;94.80;;;;;;5034413;28;20584;-73
2022/09/23 01:17:59;;;;;;;3.03;1.25;;;13.60;94.40;;;;;;5034339;28;20193;-73
2022/09/23 01:20:28;;;;;;;2.28;1.20;;;13.60;95.30;;;;;;5033869;28;20255;-74
2022/09/23 01:23:20;;;;;;;2.63;1.20;;;13.60;95.10;;;;;;5034097;28;20201;-74
2022/09/23 01:26:23;;;;;;;2.63;1.35;;;13.60;94.90;;;;;;5034216;28;20170;-73
2022/09/23 01:29:27;;;;;;;2.53;1.33;;;13.60;95.50;;;;;;5033992;28;20185;-74
2022/09/23 01:32:25;;;;;;;3.05;1.58;;;13.50;95.20;;;;;;5034070;28;20256;-73
2022/09/23 01:35:11;;;;;;;2.15;1.38;;;13.50;95.50;;;;;;5034123;28;20170;-74
2022/09/23 01:38:27;;;;;;;2.67;1.08;;;13.50;94.90;;;;;;5038576;28;20173;-74
2022/09/23 01:40:58;;;;;;;2.50;1.27;;;13.50;94.90;;;;;;5031908;28;20583;-74
2022/09/23 01:44:00;;;;;;;5.47;1.30;;;13.40;95.20;;;;;;5016076;28;20690;-73
2022/09/23 01:46:31;;;;;;;2.67;1.15;;;13.40;95.90;;;;;;5011099;28;20433;-74
2022/09/23 01:49:20;;;;;;;3.22;1.83;;;13.40;95.60;;;;;;5025191;28;20221;-73
2022/09/23 01:51:56;;;;;;;2.25;1.20;;;13.30;96.40;;;;;;5033686;28;20261;-74
2022/09/23 01:54:34;;;;;;;4.38;1.60;;;13.30;97.80;;;;;;5032493;28;20200;-73
2022/09/23 01:57:04;;;;;;;2.97;1.33;;;13.30;96.70;;;;;;5033908;28;20195;-72
2022/09/23 01:59:37;;;;;;;3.88;1.40;;;13.30;96.10;;;;;;5033257;28;20568;-73
2022/09/23 02:02:18;;;;;;;3.67;1.30;;;13.20;96.50;;;;;;5033398;28;20256;-74
2022/09/23 02:04:57;;;;;;;3.45;1.55;;;13.20;97.50;;;;;;5033467;28;20198;-73
2022/09/23 02:07:25;;;;;;;2.28;1.63;;;13.20;96.20;;;;;;5033590;28;20172;-74
2022/09/23 02:10:23;;;;;;;2.38;1.40;;;13.20;96.30;;;;;;5033141;28;20186;-73
2022/09/23 02:12:53;;;;;;;3.45;1.55;;;13.20;96.90;;;;;;5031459;28;20717;-73
2022/09/23 02:15:24;;;;;;;2.92;1.67;;;13.20;97.10;;;;;;5036985;28;20535;-73
2022/09/23 02:17:54;;;;;;;2.50;1.60;;;13.20;97.00;;;;;;5031993;28;20180;-73
2022/09/23 02:20:29;;;;;;;2.95;1.17;;;13.20;96.70;;;;;;5032759;28;20636;-74
2022/09/23 02:23:06;;;;;;;2.15;1.55;;;13.10;97.00;;;;;;5033021;28;20173;-75
2022/09/23 02:25:56;;;;;;;3.30;1.40;;;13.10;97.00;;;;;;5031757;28;20265;-72
2022/09/23 02:28:57;;;;;;;2.10;1.30;;;13.10;97.30;;;;;;5032892;28;20181;-72
2022/09/23 02:31:28;;;;;;;3.65;1.48;;;13.10;97.20;;;;;;5028727;28;20177;-72
2022/09/23 02:34:04;;;;;;;2.65;1.30;;;13.00;97.60;;;;;;5032881;28;20596;-72
2022/09/23 02:36:56;;;;;;;5.60;1.70;;;13.00;97.50;;;;;;5032938;28;20166;-73
2022/09/23 02:39:27;;;;;;;2.10;1.10;;;13.00;97.60;;;;;;5029249;28;20255;-73
2022/09/23 02:41:56;;;;;;;3.85;1.50;;;13.00;97.20;;;;;;5032691;28;20213;-73
2022/09/23 02:44:22;;;;;;;2.20;1.58;;;13.00;97.50;;;;;;5032647;28;20265;-73
2022/09/23 02:46:50;;;;;;;3.38;1.10;;;13.00;97.30;;;;;;5032769;28;20626;-73
2022/09/23 02:49:24;;;;;;;5.22;1.60;;;13.00;97.60;;;;;;5032188;28;20205;-73
2022/09/23 02:51:50;;;;;;;2.70;1.10;;;12.90;98.30;;;;;;5037144;28;20260;-73
2022/09/23 02:54:19;;;;;;;4.13;1.67;;;12.90;97.60;;;;;;5032536;28;20219;-73
2022/09/23 02:56:47;;;;;;;3.40;1.50;;;12.90;97.70;;;;;;5032396;28;20174;-73
2022/09/23 02:59:13;;;;;;;2.85;1.90;;;12.90;97.80;;;;;;5032126;28;20701;-73
2022/09/23 03:02:04;;;;;;;3.50;1.20;;;12.90;98.90;;;;;;5032180;28;20288;-74
2022/09/23 03:04:51;;;;;;;3.05;1.40;;;12.80;98.30;;;;;;5023608;28;20646;-74
2022/09/23 03:07:19;;;;;;;2.85;1.30;;;12.80;98.50;;;;;;5032202;28;20201;-74
2022/09/23 03:09:45;;;;;;;2.25;1.63;;;12.80;98.30;;;;;;5031912;28;20193;-74
2022/09/23 03:12:34;;;;;;;2.40;1.60;;;12.80;99.30;;;;;;5032186;28;20162;-73
2022/09/23 03:15:18;;;;;;;2.97;1.60;;;12.70;98.80;;;;;;5030898;28;20166;-74
2022/09/23 03:17:57;;;;;;;3.35;1.45;;;12.80;98.50;;;;;;5032119;28;20188;-74
2022/09/23 03:20:33;;;;;;;2.20;1.25;;;12.70;98.80;;;;;;5030595;28;20201;-73
2022/09/23 03:23:06;;;;;;;2.83;1.38;;;12.70;99.10;;;;;;5031852;28;20532;-73
2022/09/23 03:25:37;;;;;;;2.97;1.50;;;12.70;99.50;;;;;;5030751;28;20169;-73
2022/09/23 03:28:06;;;;;;;3.03;1.70;;;12.70;99.10;;;;;;5036644;28;20173;-74
2022/09/23 03:30:34;;;;;;;2.70;1.17;;;12.70;99.40;;;;;;5031635;28;20166;-74
2022/09/23 03:33:03;;;;;;;2.10;1.60;;;12.70;99.10;;;;;;5030307;28;20182;-74
2022/09/23 03:35:32;;;;;;;3.80;1.50;;;12.70;99.40;;;;;;5031820;28;20662;-73
2022/09/23 03:38:14;;;;;;;2.78;1.20;;;12.70;99.60;;;;;;5031703;28;20181;-73
2022/09/23 03:40:46;;;;;;;2.67;1.33;;;12.60;99.80;;;;;;5030181;28;20201;-73
2022/09/23 03:43:13;;;;;;;3.83;2.05;;;12.60;99.30;;;;;;5031527;28;20166;-73
2022/09/23 03:45:41;;;;;;;3.65;1.83;;;12.70;99.50;;;;;;5031747;28;20161;-73
2022/09/23 03:48:07;;;;;;;2.88;1.40;;;12.60;99.70;;;;;;5031345;28;20529;-73
2022/09/23 03:50:34;;;;;;;2.88;1.52;;;12.60;99.80;;;;;;5031392;28;20268;-73
2022/09/23 03:53:00;;;;;;;3.45;2.00;;;12.60;99.90;;;;;;5031411;28;20178;-73
2022/09/23 03:55:26;;;;;;;2.35;1.33;;;12.60;99.90;;;;;;5030330;28;20657;-73
2022/09/23 03:57:52;;;;;;;3.47;1.90;;;12.50;99.90;;;;;;5031570;28;20174;-74
2022/09/23 04:00:18;;;;;;;3.28;1.60;;;12.50;99.90;;;;;;5029859;28;20252;-74
2022/09/23 04:02:44;;;;;;;2.50;1.63;;;12.50;99.90;;;;;;5031334;28;20177;-74
2022/09/23 04:05:11;;;;;;;4.77;2.43;;;12.50;99.90;;;;;;5036672;28;20173;-74
2022/09/23 04:07:37;;;;;;;3.10;1.42;;;12.50;99.90;;;;;;5031658;28;20529;-73
2022/09/23 04:10:04;;;;;;;6.60;2.33;;;12.50;99.90;;;;;;5031506;28;20186;-72
2022/09/23 04:12:30;;;;;;;3.28;1.80;;;12.50;99.90;;;;;;5035400;28;20236;-74
2022/09/23 04:14:55;;;;;;;3.90;1.53;;;12.50;99.90;;;;;;5035527;28;20205;-73
2022/09/23 04:17:21;;;;;;;4.30;1.60;;;12.40;99.90;;;;;;5035474;28;20574;-73
2022/09/23 04:19:47;;;;;;;3.23;1.70;;;12.40;99.90;;;;;;5035193;28;20190;-73
2022/09/23 04:22:12;;;;;;;2.10;1.10;;;12.40;99.90;;;;;;5035310;28;20162;-73
2022/09/23 04:24:38;;;;;;;3.27;1.67;;;12.40;99.90;;;;;;5034257;28;20174;-73
2022/09/23 04:27:04;;;;;;;3.10;2.07;;;12.40;99.90;;;;;;5035435;28;20501;-73
2022/09/23 04:29:29;;;;;;;4.63;1.47;;;12.40;99.90;;;;;;5033542;28;20198;-73
2022/09/23 04:31:56;;;;;;;2.93;1.83;;;12.40;99.90;;;;;;5035299;28;20178;-73
2022/09/23 04:34:22;;;;;;;2.92;1.67;;;12.30;99.90;;;;;;5035281;28;20162;-73
2022/09/23 04:36:49;;;;;;;3.13;1.70;;;12.30;99.90;;;;;;5035184;28;20177;-74
2022/09/23 04:39:16;;;;;;;4.18;2.03;;;12.30;99.90;;;;;;5033428;28;20596;-73
2022/09/23 04:41:45;;;;;;;4.13;1.92;;;12.20;99.90;;;;;;5037305;28;20584;-74
2022/09/23 04:44:12;;;;;;;6.03;2.38;;;12.20;99.90;;;;;;5036292;28;20201;-73
2022/09/23 04:46:39;;;;;;;2.92;1.90;;;12.20;99.90;;;;;;5034945;28;20261;-73
2022/09/23 04:49:06;;;;;;;2.97;1.77;;;12.20;99.90;;;;;;5034608;28;20280;-73
2022/09/23 04:51:32;;;;;;;3.83;1.98;;;12.10;99.90;;;;;;5034488;28;20268;-74
2022/09/23 04:53:57;;;;;;;3.08;1.77;;;12.10;99.90;;;;;;5034911;28;20181;-73
2022/09/23 04:56:26;;;;;;;2.10;1.40;;;12.10;99.90;;;;;;5034767;28;20178;-73
2022/09/23 04:58:52;;;;;;;3.47;1.48;;;12.10;99.90;;;;;;5034692;28;20189;-75
2022/09/23 05:01:25;;;;;;;2.20;1.33;;;12.10;99.90;;;;;;5034164;28;20205;-73
2022/09/23 05:03:53;;;;;;;3.28;1.80;;;12.10;99.90;;;;;;5033416;28;20170;-74
2022/09/23 05:06:19;;;;;;;4.60;1.55;;;12.10;99.90;;;;;;5034635;28;20169;-73
2022/09/23 05:08:51;;;;;;;2.63;1.30;;;12.10;99.90;;;;;;5033365;28;20186;-73
2022/09/23 05:11:17;;;;;;;4.18;1.55;;;12.10;99.90;;;;;;5034202;28;20576;-74
2022/09/23 05:13:47;;;;;;;2.20;1.50;;;12.10;99.90;;;;;;5034571;28;20166;-73
2022/09/23 05:16:13;;;;;;;4.63;1.83;;;12.10;99.90;;;;;;5034604;28;20472;-73
2022/09/23 05:18:41;;;;;;;3.33;1.63;;;12.10;99.90;;;;;;5034757;28;20292;-74
2022/09/23 05:21:13;;;;;;;3.25;1.95;;;12.10;99.90;;;;;;5036248;28;20619;-74
2022/09/23 05:23:39;;;;;;;4.00;1.55;;;12.10;99.90;;;;;;5033678;28;20248;-73
2022/09/23 05:26:12;;;;;;;2.97;1.67;;;12.10;99.90;;;;;;5034404;28;20182;-73
2022/09/23 05:28:38;;;;;;;2.20;1.73;;;12.10;99.90;;;;;;5032940;28;20287;-73
2022/09/23 05:31:14;;;;;;;2.72;1.73;;;12.10;99.90;;;;;;5034166;28;20170;-74
2022/09/23 05:33:51;;;;;;;2.67;1.63;;;12.10;99.90;;;;;;5034629;28;20173;-73
2022/09/23 05:36:19;;;;;;;2.50;1.30;;;12.10;99.90;;;;;;5034162;28;20181;-74
2022/09/23 05:38:45;;;;;;;3.53;1.67;;;12.10;99.90;;;;;;5016382;28;20198;-74
2022/09/23 05:41:12;;;;;;;3.80;2.03;;;12.10;99.90;;;;;;5032557;28;20228;-74
2022/09/23 05:43:38;;;;;;;3.28;1.90;;;12.10;99.90;;;;;;5034144;28;20248;-74
2022/09/23 05:46:28;;;;;;;2.95;1.95;;;12.10;99.90;;;;;;5032729;28;20192;-75
2022/09/23 05:48:56;;;;;;;3.42;2.15;;;12.10;99.90;;;;;;5032315;28;20205;-74
2022/09/23 05:51:24;;;;;;;4.18;2.38;;;12.10;99.90;;;;;;5033426;28;20200;-74
2022/09/23 05:53:51;;;;;;;3.88;2.20;;;12.20;99.90;;;;;;5033820;28;20224;-74
2022/09/23 05:56:22;;;;;;;3.45;2.30;;;12.20;99.90;;;;;;5038213;28;20173;-74
2022/09/23 05:58:50;;;;;;;4.47;2.05;;;12.20;99.90;;;;;;5032443;28;20201;-74
2022/09/23 06:01:20;;;;;;;3.70;2.00;;;12.30;99.90;;;;;;5033209;28;20197;-74
2022/09/23 06:03:47;;;;;;;3.45;1.95;;;12.30;99.90;;;;;;5032232;28;20201;-74
2022/09/23 06:06:14;;;;;;;2.72;1.85;;;12.30;99.90;;;;;;5033504;28;20162;-74
2022/09/23 06:08:41;;;;;;;2.55;1.67;;;12.40;99.90;;;;;;5033509;28;20207;-74
2022/09/23 06:11:07;;;;;;;4.22;2.38;;;12.40;99.90;;;;;;5033091;28;20592;-74
2022/09/23 06:13:36;;;;;;;3.53;2.30;;;12.50;99.90;;;;;;5031967;28;20525;-75
2022/09/23 06:16:07;;;;;;;3.40;2.25;;;12.50;99.90;;;;;;5033248;28;20534;-74
2022/09/23 06:18:34;;;;;;;5.03;2.15;;;12.50;99.90;;;;;;5033231;28;20190;-74
2022/09/23 06:21:01;;;;;;;3.10;1.83;;;12.50;99.90;;;;;;5031587;28;20205;-74
2022/09/23 06:23:27;;;;;;;3.17;1.88;;;12.60;99.90;;;;;;5033142;28;20315;-74
2022/09/23 06:25:53;;;;;;;3.20;2.38;;;12.60;99.90;;;;;;5033080;28;20166;-74
2022/09/23 06:28:19;;;;;;;2.30;1.80;;;12.70;99.90;;;;;;5031916;28;20243;-74
2022/09/23 06:30:44;;;;;;;3.40;2.07;;;12.80;99.90;;;;;;5032706;28;20567;-75
2022/09/23 06:33:10;;;;;;;4.90;1.90;;;12.90;99.90;;;;;;5038062;28;20571;-73
2022/09/23 06:35:36;;;;;;;2.77;1.80;;;13.00;99.90;;;;;;5035696;28;20169;-73
2022/09/23 06:38:03;;;;;;;2.20;1.60;;;13.00;99.90;;;;;;5036049;28;20188;-74
2022/09/23 06:40:30;;;;;;;2.10;1.65;;;13.10;99.90;;;;;;5032897;28;20201;-73
2022/09/23 06:42:57;;;;;;;4.70;1.85;;;13.20;99.90;;;;;;5033271;28;20174;-73
2022/09/23 06:45:23;;;;;;;6.10;2.50;;;13.30;99.90;;;;;;5033161;28;20161;-73
2022/09/23 06:47:55;;;;;;;3.93;1.77;;;13.40;99.90;;;;;;5033095;28;20212;-73
2022/09/23 06:50:22;;;;;;;3.17;1.52;;;13.40;99.90;;;;;;5031601;28;20600;-73
2022/09/23 06:52:55;;;;;;;3.40;1.35;;;13.50;99.90;;;;;;5037547;28;20174;-74
2022/09/23 06:55:26;;;;;;;4.03;1.90;;;13.60;99.90;;;;;;5039020;28;20153;-73
2022/09/23 06:57:53;;;;;;;2.95;1.50;;;13.60;99.90;;;;;;5035597;28;20292;-73
2022/09/23 07:00:20;;;;;;;2.05;1.30;;;13.70;99.90;;;;;;5034042;28;20220;-73
2022/09/23 07:02:46;;;;;;;4.25;1.80;;;13.80;99.90;;;;;;5034219;28;20215;-73
2022/09/23 07:05:12;;;;;;;2.77;1.80;;;13.90;99.90;;;;;;5033910;28;20248;-73
2022/09/23 07:07:38;;;;;;;4.85;2.20;;;14.00;99.90;;;;;;5034750;28;20571;-73
2022/09/23 07:10:05;;;;;;;4.10;2.07;;;14.00;99.90;;;;;;5035725;28;20578;-74
2022/09/23 07:12:32;;;;;;;3.15;1.67;;;14.20;99.90;;;;;;5032942;28;20571;-78
2022/09/23 07:14:58;;;;;;;2.63;1.58;;;14.40;99.90;;;;;;5032555;28;20576;-75
2022/09/23 07:17:24;;;;;;;2.47;1.80;;;14.60;99.90;;;;;;5032124;28;20169;-74
2022/09/23 07:19:56;;;;;;;5.57;1.73;;;14.80;99.90;;;;;;5030673;28;20189;-74
2022/09/23 07:22:24;;;;;;;2.10;1.40;;;15.30;99.90;;;;;;5032195;28;20571;-75
2022/09/23 07:24:53;;;;;;;3.13;1.50;;;15.90;99.90;;;;;;5014597;28;20572;-75
2022/09/23 07:27:18;;;;;;;4.77;1.77;;;16.60;99.90;;;;;;5043324;28;20553;-74
2022/09/23 07:29:49;;;;;;;2.33;1.20;;;17.50;99.90;;;;;;5038524;28;20973;-73
2022/09/23 07:32:15;;;;;;;1.80;1.00;;;18.30;99.90;;;;;;5032165;28;20569;-74
2022/09/23 07:34:42;;;;;;;4.10;1.30;;;19.30;99.90;;;;;;5032968;28;20667;-73
2022/09/23 07:37:08;;;;;;;2.00;1.10;;;20.30;99.90;;;;;;5031936;28;20925;-74
2022/09/23 07:39:35;;;;;;;2.30;1.33;;;21.30;99.90;;;;;;5031622;28;20596;-73
2022/09/23 07:42:04;;;;;;;5.70;1.40;;;22.10;99.90;;;;;;5031583;28;20665;-75
2022/09/23 07:44:30;;;;;;;4.33;1.00;;;22.90;99.90;;;;;;5030113;28;20925;-73
2022/09/23 07:46:57;;;;;;;3.30;1.50;;;23.50;97.60;;;;;;5031201;28;21302;-74
2022/09/23 07:49:24;;;;;;;2.67;1.37;;;23.80;95.80;;;;;;5032832;28;20620;-74
2022/09/23 07:51:51;;;;;;;3.63;1.10;;;24.00;94.20;;;;;;5030152;28;20569;-73
2022/09/23 07:54:17;;;;;;;2.73;1.20;;;23.90;91.40;;;;;;5031577;28;20668;-73
2022/09/23 07:56:44;;;;;;;5.00;1.60;;;23.90;90.40;;;;;;5031422;28;20694;-73
2022/09/23 07:59:17;;;;;;;2.03;1.27;;;23.70;87.70;;;;;;5031488;28;20592;-73
2022/09/23 08:01:46;;;;;;;3.40;1.20;;;23.40;86.50;;;;;;5031390;28;20612;-73
2022/09/23 08:04:19;;;;;;;4.20;1.30;;;23.10;86.40;;;;;;5031434;28;20936;-73
2022/09/23 08:06:50;;;;;;;1.90;1.07;;;22.90;84.00;;;;;;5030280;28;20567;-73
2022/09/23 08:09:18;;;;;;;3.20;1.40;;;22.70;84.20;;;;;;5031085;28;20687;-73
2022/09/23 08:11:44;;;;;;;3.83;1.50;;;22.60;85.00;;;;;;5031207;28;20623;-74
2022/09/23 08:14:12;;;;;;;2.43;1.50;;;22.50;84.00;;;;;;5031313;28;20588;-74
2022/09/23 08:16:38;;;;;;;4.93;1.40;;;22.20;82.90;;;;;;5031367;28;20569;-74
2022/09/23 08:19:05;;;;;;;3.23;1.20;;;22.00;81.30;;;;;;5031332;28;20808;-74
2022/09/23 08:21:31;;;;;;;6.33;1.50;;;21.80;81.70;;;;;;5029602;28;20639;-74
2022/09/23 08:23:57;;;;;;;4.40;1.40;;;21.60;82.70;;;;;;5032214;28;20564;-74
2022/09/23 08:26:23;;;;;;;5.20;3.33;;;21.50;83.40;;;;;;5033288;28;20691;-73
2022/09/23 08:28:53;;;;;;;1.87;1.30;;;21.30;82.70;;;;;;5013404;28;20709;-73
2022/09/23 08:31:22;;;;;;;3.27;0.90;;;21.10;82.80;;;;;;5030910;28;20676;-73
2022/09/23 08:33:54;;;;;;;2.07;1.07;;;20.90;82.60;;;;;;5030044;28;20564;-73
2022/09/23 08:36:20;;;;;;;5.10;1.37;;;20.60;82.20;;;;;;5013591;28;20568;-73
2022/09/23 08:38:45;;;;;;;3.00;1.30;;;20.40;82.50;;;;;;5029852;28;21163;-73
2022/09/23 08:41:44;;;;;;;3.50;1.10;;;20.30;83.20;;;;;;5029565;28;20240;-73
2022/09/23 08:44:19;;;;;;;3.47;1.30;;;20.10;83.10;;;;;;5029834;28;20232;-73
2022/09/23 08:47:12;;;;;;;4.50;1.30;;;19.90;84.20;;;;;;5031156;28;20567;-73
2022/09/23 08:50:07;;;;;;;3.70;1.50;;;20.00;84.40;;;;;;5030747;28;20614;-73
2022/09/23 08:52:33;;;;;;;3.83;1.50;;;20.10;85.60;;;;;;5030959;28;20565;-74
2022/09/23 08:55:00;;;;;;;2.03;1.43;;;20.30;85.90;;;;;;5030920;28;20749;-74
2022/09/23 08:57:41;;;;;;;3.37;1.60;;;20.50;86.90;;;;;;5033606;28;20181;-74
2022/09/23 09:00:23;;;;;;;3.27;1.60;;;20.70;83.90;;;;;;5034536;28;20588;-74
2022/09/23 09:02:49;;;;;;;4.17;1.90;;;21.00;86.90;;;;;;5037097;28;20623;-74
2022/09/23 09:05:24;;;;;;;4.17;1.97;;;21.20;85.60;;;;;;5034561;28;20561;-74
2022/09/23 09:07:52;;;;;;;2.90;1.63;;;21.20;84.20;;;;;;5033475;28;20204;-74
2022/09/23 09:10:22;;;;;;;2.67;1.67;;;21.10;83.60;;;;;;5016418;28;20615;-74
2022/09/23 09:13:06;;;;;;;4.43;1.50;;;21.10;84.00;;;;;;5032975;28;20575;-73
2022/09/23 09:15:42;;;;;;;3.00;1.23;;;21.10;83.60;;;;;;5034541;28;20608;-74
2022/09/23 09:18:19;;;;;;;5.07;1.23;;;21.20;83.90;;;;;;5034315;28;20564;-74
2022/09/23 09:20:58;;;;;;;2.80;1.60;;;21.20;84.00;;;;;;5033952;28;20983;-74
2022/09/23 09:23:37;;;;;;;6.53;1.90;;;21.40;82.90;;;;;;5034050;28;20993;-74
2022/09/23 09:26:08;;;;;;;3.50;1.10;;;21.50;83.50;;;;;;5033037;28;20572;-74
2022/09/23 09:28:40;;;;;;;2.20;1.40;;;21.70;83.60;;;;;;5033038;28;20967;-74
2022/09/23 09:31:24;;;;;;;2.77;1.80;;;21.90;83.30;;;;;;5032620;28;20576;-74
2022/09/23 09:33:58;;;;;;;3.67;1.70;;;22.10;82.60;;;;;;5034010;28;20564;-73
2022/09/23 09:36:31;;;;;;;2.63;1.07;;;22.20;82.20;;;;;;5034126;28;20581;-74
2022/09/23 09:38:58;;;;;;;2.37;1.30;;;22.40;82.40;;;;;;5034573;28;20596;-73
2022/09/23 09:41:27;;;;;;;4.50;1.50;;;22.70;82.10;;;;;;5033593;28;20651;-73
2022/09/23 09:43:56;;;;;;;5.50;1.80;;;23.00;83.80;;;;;;5033918;28;20927;-73
2022/09/23 09:46:50;;;;;;;2.97;1.60;;;23.60;83.80;;;;;;5033883;28;20564;-73
2022/09/23 09:49:24;;;;;;;4.03;1.47;;;24.00;82.40;;;;;;5033312;28;20695;-74
2022/09/23 09:52:12;;;;;;;4.07;1.30;;;24.60;83.30;;;;;;5032282;28;20629;-74
2022/09/23 09:54:38;;;;;;;2.00;1.40;;;25.20;80.70;;;;;;5032481;28;20671;-73
2022/09/23 09:57:09;;;;;;;3.30;1.40;;;25.80;80.20;;;;;;5033656;28;20564;-73
2022/09/23 09:59:41;;;;;;;4.10;1.30;;;26.10;78.80;;;;;;5032135;28;20638;-73
2022/09/23 10:02:35;;;;;;;4.57;1.50;;;26.40;77.50;;;;;;5033268;28;20616;-73
2022/09/23 10:05:05;;;;;;;1.80;0.90;;;26.70;73.20;;;;;;5030738;28;21190;-73
2022/09/23 10:07:33;;;;;;;2.40;1.40;;;26.80;72.70;;;;;;5030870;28;20707;-73
2022/09/23 10:10:20;;;;;;;2.40;1.00;;;26.50;63.50;;;;;;5031480;28;20189;-73
2022/09/23 10:12:48;;;;;;;2.23;0.83;;;26.50;66.70;;;;;;5033358;28;20568;-74
2022/09/23 10:15:32;;;;;;;2.63;1.30;;;26.70;66.80;;;;;;5034181;28;20975;-74
2022/09/23 10:18:00;;;;;;;2.60;1.07;;;26.80;65.60;;;;;;5033231;28;20561;-73
2022/09/23 10:20:37;;;;;;;2.93;1.20;;;26.80;65.10;;;;;;5015101;28;20628;-73
2022/09/23 10:23:13;;;;;;;2.23;1.00;;;26.80;64.60;;;;;;5031683;28;20576;-73
2022/09/23 10:25:40;;;;;;;6.90;1.10;;;27.00;65.00;;;;;;5032075;28;20576;-74
2022/09/23 10:28:31;;;;;;;2.20;1.00;;;27.00;64.40;;;;;;5032883;28;20581;-73
2022/09/23 10:31:04;;;;;;;1.90;1.10;;;27.10;64.00;;;;;;5032828;28;20627;-73
2022/09/23 10:33:30;;;;;;;2.77;1.40;;;27.20;62.30;;;;;;5031680;28;20631;-73
2022/09/23 10:35:56;;;;;;;3.40;1.17;;;26.90;59.50;;;;;;5033048;28;20577;-73
2022/09/23 10:38:23;;;;;;;2.83;1.60;;;26.60;59.70;;;;;;5031540;28;20604;-73
2022/09/23 10:47:01;;;;;;;2.20;1.27;;;25.80;59.10;;;;;;5031642;28;20561;-73
2022/09/23 10:50:02;;;;;;;1.70;1.20;;;25.50;59.40;;;;;;5032289;28;20658;-73
2022/09/23 10:52:40;;;;;;;3.80;1.10;;;25.30;59.90;;;;;;5033395;28;20617;-73
2022/09/23 10:55:37;;;;;;;2.30;1.10;;;25.10;59.70;;;;;;5031716;28;20568;-73
2022/09/23 10:58:41;;;;;;;3.00;1.00;;;25.10;60.60;;;;;;5032441;28;20579;-73
2022/09/23 11:01:46;;;;;;;2.85;1.30;;;25.10;58.10;;;;;;5029949;28;20804;-73
2022/09/23 11:04:42;;;;;;;5.70;1.30;;;25.30;59.60;;;;;;5032365;28;20515;-73
2022/09/23 11:07:17;;;;;;;3.13;1.30;;;25.60;61.50;;;;;;5032228;28;20610;-73
2022/09/23 11:09:56;;;;;;;2.10;1.00;;;25.80;61.00;;;;;;5014272;28;20599;-74
2022/09/23 11:12:43;;;;;;;3.60;1.00;;;25.80;59.70;;;;;;5032162;28;20556;-73
2022/09/23 11:15:25;;;;;;;2.23;1.03;;;25.50;58.80;;;;;;5030909;28;20565;-73
2022/09/23 11:18:08;;;;;;;1.80;0.90;;;25.50;58.90;;;;;;5032206;28;20948;-73
2022/09/23 11:20:44;;;;;;;2.30;1.00;;;25.50;59.40;;;;;;5031833;28;20612;-73
2022/09/23 11:23:36;;;;;;;2.30;1.20;;;25.50;59.50;;;;;;5031957;28;20556;-74
2022/09/23 11:26:16;;;;;;;2.23;0.93;;;25.50;59.30;;;;;;5031989;28;20560;-75
2022/09/23 11:28:46;;;;;;;4.47;1.83;;;25.50;59.00;;;;;;5030677;28;20596;-75
2022/09/23 11:31:42;;;;;;;3.33;1.10;;;25.40;58.90;;;;;;4999280;28;20575;-75
2022/09/23 11:34:25;;;;;;;1.93;0.90;;;25.40;59.10;;;;;;5031906;28;20568;-74
2022/09/23 11:37:17;;;;;;;2.93;1.10;;;25.40;58.90;;;;;;5031869;28;20723;-74
2022/09/23 11:40:00;;;;;;;2.90;1.20;;;25.10;57.70;;;;;;5031515;28;21015;-74
2022/09/23 11:42:30;;;;;;;2.23;0.90;;;24.80;58.00;;;;;;5031668;28;20992;-74
2022/09/23 11:45:19;;;;;;;2.03;1.00;;;24.70;58.80;;;;;;5031769;28;20575;-74
2022/09/23 11:47:51;;;;;;;2.13;1.10;;;24.50;58.00;;;;;;5030593;28;20561;-74
2022/09/23 11:50:31;;;;;;;1.90;1.20;;;24.30;58.20;;;;;;5030315;28;20673;-74
2022/09/23 11:53:01;;;;;;;3.43;0.90;;;24.20;58.30;;;;;;5032179;28;20630;-74
2022/09/23 11:55:33;;;;;;;2.43;1.43;;;24.20;59.10;;;;;;5032267;28;20610;-74
2022/09/23 11:58:17;;;;;;;2.40;0.87;;;24.20;59.10;;;;;;5030287;28;20572;-74
2022/09/23 12:00:56;;;;;;;3.00;1.40;;;24.20;59.60;;;;;;5031257;28;20612;-74
2022/09/23 12:03:39;;;;;;;4.13;1.47;;;24.30;59.60;;;;;;5031308;28;20568;-74
2022/09/23 12:06:12;;;;;;;4.60;1.67;;;24.40;59.50;;;;;;5031478;28;20914;-74
2022/09/23 12:08:38;;;;;;;2.50;1.30;;;24.50;59.00;;;;;;5030914;28;20604;-74
2022/09/23 12:11:14;;;;;;;3.03;1.00;;;24.50;59.20;;;;;;5031102;28;20573;-74
2022/09/23 12:14:07;;;;;;;3.70;1.20;;;24.50;59.00;;;;;;5031477;28;20906;-74
2022/09/23 12:16:33;;;;;;;2.93;1.07;;;24.60;58.50;;;;;;5030274;28;21120;-74
2022/09/23 12:19:20;;;;;;;4.10;1.00;;;24.70;58.90;;;;;;5031345;28;20654;-74
2022/09/23 12:22:07;;;;;;;2.40;0.77;;;24.80;59.00;;;;;;5031159;28;20689;-74
2022/09/23 12:24:52;;;;;;;2.00;0.90;;;24.80;58.20;;;;;;5031362;28;20672;-75
2022/09/23 12:27:31;;;;;;;2.80;0.80;;;24.80;58.50;;;;;;5031366;28;21002;-74
2022/09/23 12:30:01;;;;;;;2.20;1.00;;;24.80;58.70;;;;;;5031012;28;20609;-74
2022/09/23 12:32:27;;;;;;;2.23;1.10;;;24.90;58.80;;;;;;5033950;28;20568;-74
2022/09/23 12:34:53;;;;;;;1.63;0.90;;;25.00;58.30;;;;;;5035315;28;20810;-74
2022/09/23 12:37:37;;;;;;;2.60;1.00;;;24.80;57.80;;;;;;5035140;28;20947;-75
2022/09/23 12:40:34;;;;;;;1.93;0.90;;;24.60;57.40;;;;;;5033313;28;20616;-74
2022/09/23 12:43:01;;;;;;;1.67;0.90;;;24.50;57.50;;;;;;5016556;28;21167;-75
2022/09/23 12:45:31;;;;;;;4.37;1.00;;;24.50;57.80;;;;;;5037806;28;20668;-74
2022/09/23 12:47:58;;;;;;;1.50;0.80;;;24.50;57.80;;;;;;5034791;28;20626;-74
2022/09/23 12:50:51;;;;;;;4.70;0.97;;;24.50;58.60;;;;;;5033280;28;20968;-74
2022/09/23 12:53:31;;;;;;;3.73;0.80;;;24.50;57.80;;;;;;5034196;28;20580;-72
2022/09/23 12:55:59;;;;;;;2.23;0.77;;;24.60;57.70;;;;;;5034844;28;20576;-73
2022/09/23 12:58:48;;;;;;;2.43;1.00;;;24.70;57.90;;;;;;5034635;28;20622;-73
2022/09/23 13:01:13;;;;;;;1.60;0.90;;;24.70;58.00;;;;;;5031284;28;20639;-73
2022/09/23 13:06:55;;;;;;;1.90;1.00;;;24.90;57.30;;;;;;5034662;28;20177;-73
2022/09/23 13:09:36;;;;;;;2.00;0.87;;;24.90;56.70;;;;;;5034213;28;20599;-72
2022/09/23 13:12:04;;;;;;;2.07;1.00;;;24.80;57.70;;;;;;5033223;28;20607;-72
2022/09/23 13:14:32;;;;;;;2.20;1.67;;;24.80;57.20;;;;;;5033226;28;21186;-73
2022/09/23 13:16:58;;;;;;;3.30;1.00;;;24.80;57.10;;;;;;5034393;28;20589;-72
2022/09/23 13:19:26;;;;;;;2.83;1.07;;;24.70;56.80;;;;;;5033920;28;20658;-72
2022/09/23 13:21:52;;;;;;;1.90;0.90;;;24.60;56.60;;;;;;5034730;28;20616;-72
2022/09/23 13:24:27;;;;;;;3.70;0.90;;;24.50;56.70;;;;;;5034334;28;20683;-73
2022/09/23 13:26:59;;;;;;;4.73;0.90;;;24.40;56.80;;;;;;5016559;28;20165;-72
2022/09/23 13:30:06;;;;;;;4.33;1.70;;;24.30;56.90;;;;;;5033876;28;20588;-72